Latest Weather Observations for Hay Airport

IDN60801

Issued at 2:52 pm EST Tuesday 19 June 2018 (issued every 10 minutes, with the page automatically refreshed every 10 minutes)

About weather observations | Map of weather stations | Latest weather observations for NSW | Other Formats
Station Details ID: 075019 Name: HAY AIRPORT AWS Lat: -34.54 Lon: 144.83 Height: 92.0 m
Data from the previous 72 hours. | See also: Recent months at Hay Airport
Date/Time
EST
Temp
°C
App
Temp
°C
Dew
Point
°C
Rel
Hum
%
Delta-T
°C
Wind Press
QNH
hPa
Press
MSL
hPa
Rain since
9am
mm
Dir  Spd
km/h
Gust
km/h
Spd
kts
Gust
kts
19/02:30pm 14.2 12.4 3.7 49 4.8 SW 2 9 1 5 1026.5 1026.6 0.0
19/02:00pm 14.4 12.2 3.5 48 4.9 NW 4 9 2 5 1026.6 1026.7 0.0
19/01:30pm 13.8 12.5 3.9 51 4.5 CALM 0 0 0 0 1026.9 1027.0 0.0
19/01:00pm 13.2 11.5 4.1 54 4.1 SW 2 7 1 4 1027.5 1027.6 0.0
19/12:30pm 13.2 10.8 4.1 54 4.2 NNW 6 11 3 6 1027.8 1027.9 0.0
19/12:00pm 12.2 9.8 4.4 59 3.5 NW 6 9 3 5 1028.3 1028.5 0.0
19/11:30am 11.7 9.8 4.7 62 3.2 ENE 4 9 2 5 1028.4 1028.6 0.0
19/11:00am 10.4 6.8 5.2 70 2.4 E 13 17 7 9 1028.2 1028.4 0.0
19/10:30am 8.7 6.2 4.5 75 1.9 ESE 7 9 4 5 1028.4 1028.6 0.0
19/10:00am 7.3 3.3 4.8 84 1.1 ESE 15 19 8 10 1027.9 1028.0 0.0
19/09:30am 5.5 1.8 4.3 92 0.5 SE 13 17 7 9 1028.1 1028.3 0.0
19/09:00am 4.1 1.0 3.7 97 0.2 SE 9 15 5 8 1027.8 1027.9 0.0
19/08:30am 2.2 -1.2 2.1 99 0.0 SSE 9 11 5 6 1027.7 1027.8 0.0
19/08:00am 0.7 -2.3 0.6 99 0.0 SSE 6 7 3 4 1027.7 1027.8 0.0
19/07:30am -0.3 -4.4 -0.4 99 0.0 SSW 11 13 6 7 1027.8 1027.9 0.0
19/07:00am -0.4 -4.5 -0.5 99 0.0 SW 11 13 6 7 1027.9 1028.0 0.0
19/06:30am -0.1 -3.8 -0.2 99 0.0 SW 9 11 5 6 1027.6 1027.7 0.0
19/06:00am 0.2 -3.1 0.1 99 0.0 W 7 11 4 6 1027.5 1027.6 0.0
19/05:30am 0.3 -4.1 0.2 99 0.0 WSW 13 13 7 7 1027.1 1027.2 0.0
19/05:00am 0.5 -3.5 0.4 99 0.0 SW 11 13 6 7 1026.7 1026.8 0.0
19/04:30am 1.0 -3.0 0.7 98 0.1 SW 11 13 6 7 1026.4 1026.5 0.0
19/04:00am 1.6 -2.3 1.3 98 0.1 SW 11 15 6 8 1026.5 1026.6 0.0
19/03:30am 1.5 -2.8 1.1 97 0.2 W 13 15 7 8 1026.7 1026.8 0.0
19/03:00am 2.2 -1.6 1.5 95 0.3 SW 11 13 6 7 1026.4 1026.5 0.0
19/02:30am 2.5 -1.7 1.6 94 0.3 SSW 13 15 7 8 1026.0 1026.1 0.0
19/02:00am 3.1 -1.0 2.4 95 0.3 SSW 13 17 7 9 1026.2 1026.3 0.0
19/01:30am 3.1 -1.0 2.5 96 0.2 SW 13 15 7 8 1026.4 1026.5 0.0
19/01:00am 2.8 -1.4 1.9 94 0.3 SW 13 15 7 8 1026.4 1026.5 0.0
19/12:30am 3.6 0.0 2.7 94 0.4 SW 11 13 6 7 1026.3 1026.4 0.0
19/12:00am 4.1 0.5 2.9 92 0.5 SW 11 13 6 7 1026.4 1026.5 0.0
 
Date/Time
EST
Temp
°C
App
Temp
°C
Dew
Point
°C
Rel
Hum
%
Delta-T
°C
Wind Press
QNH
hPa
Press
MSL
hPa
Rain since
9am
mm
Dir  Spd
km/h
Gust
km/h
Spd
kts
Gust
kts
18/11:30pm 5.4 1.2 3.7 89 0.7 SW 15 17 8 9 1026.4 1026.5 0.0
18/11:00pm 6.0 2.2 4.0 87 0.8 SW 13 15 7 8 1026.5 1026.6 0.0
18/10:30pm 7.7 4.0 4.5 80 1.4 SW 13 17 7 9 1026.6 1026.7 0.0
18/10:00pm 9.6 5.7 5.4 75 1.9 SSW 15 19 8 10 1026.7 1026.8 0.0
18/09:30pm 10.0 5.8 5.8 75 1.9 SSW 17 20 9 11 1026.8 1026.9 0.0
18/09:00pm 10.2 6.0 5.8 74 2.0 SSW 17 19 9 10 1026.6 1026.7 0.0
18/08:30pm 10.4 6.6 6.0 74 2.0 SSW 15 19 8 10 1026.5 1026.6 0.0
18/08:00pm 10.4 5.6 5.8 73 2.1 SSW 20 26 11 14 1026.4 1026.5 0.0
18/07:30pm 10.7 6.6 6.1 73 2.1 SW 17 24 9 13 1026.3 1026.4 0.0
18/07:00pm 9.8 5.7 6.0 77 1.7 SW 17 20 9 11 1026.1 1026.2 0.0
18/06:30pm 8.9 5.3 5.1 77 1.7 SW 13 17 7 9 1025.9 1026.0 0.0
18/06:00pm 10.1 6.1 5.1 71 2.3 SSW 15 17 8 9 1025.7 1025.8 0.0
18/05:30pm 11.9 7.3 5.8 66 2.9 SSW 19 26 10 14 1025.6 1025.7 0.0
18/05:00pm 12.7 8.6 6.1 64 3.1 SW 17 26 9 14 1025.5 1025.6 0.0
18/04:30pm 13.3 8.6 5.9 61 3.5 SW 20 26 11 14 1025.4 1025.5 0.0
18/04:00pm 13.3 7.3 5.5 59 3.7 SW 26 33 14 18 1025.2 1025.3 0.0
18/03:30pm 13.7 7.8 5.6 58 3.8 SW 26 33 14 18 1025.0 1025.1 0.0
18/03:00pm 14.4 8.8 5.5 55 4.2 SW 24 35 13 19 1024.9 1025.0 0.0
18/02:30pm 15.1 9.6 5.9 54 4.4 SW 24 30 13 16 1024.9 1025.0 0.0
18/02:00pm 14.8 9.2 5.6 54 4.4 SSW 24 33 13 18 1024.8 1024.9 0.0
18/01:30pm 14.6 9.0 5.4 54 4.4 SSW 24 33 13 18 1024.7 1024.8 0.0
18/01:00pm 14.2 8.1 5.0 54 4.3 S 26 35 14 19 1025.0 1025.1 0.0
18/12:30pm 14.0 8.1 5.9 58 3.9 SSW 26 35 14 19 1025.3 1025.4 0.0
18/12:00pm 12.8 6.6 6.2 64 3.1 SSW 28 39 15 21 1025.5 1025.6 0.0
18/11:30am 12.9 6.8 6.5 65 3.1 SSW 28 37 15 20 1025.6 1025.7 0.0
18/11:00am 11.8 5.7 6.5 70 2.5 SSW 28 35 15 19 1025.8 1025.9 0.0
18/10:30am 10.1 4.3 6.4 78 1.7 SW 26 33 14 18 1025.8 1025.9 0.0
18/10:00am 8.8 2.7 6.4 85 1.1 SW 28 35 15 19 1025.7 1025.8 0.0
18/09:30am 7.9 2.5 6.2 89 0.8 SW 24 32 13 17 1025.4 1025.5 0.0
18/09:00am 6.8 1.7 6.1 95 0.3 SW 22 28 12 15 1025.2 1025.3 0.2
18/08:30am 5.3 0.4 5.2 99 0.0 SW 20 28 11 15 1024.7 1024.8 0.2
18/08:00am 4.2 -0.7 4.1 99 0.0 WSW 19 24 10 13 1024.6 1024.7 0.2
18/07:30am 3.8 -1.2 3.7 99 0.0 WSW 19 24 10 13 1024.3 1024.4 0.2
18/07:00am 4.2 -0.3 4.1 99 0.0 WSW 17 22 9 12 1023.9 1024.0 0.0
18/06:30am 4.8 -0.6 4.7 99 0.0 SW 22 28 12 15 1023.7 1023.8 0.0
18/06:00am 4.9 -0.4 4.8 99 0.0 SW 22 30 12 16 1023.5 1023.6 0.0
18/05:30am 4.4 -0.5 4.3 99 0.0 WSW 19 24 10 13 1023.2 1023.3 0.0
18/05:00am 4.2 -0.3 4.1 99 0.0 WSW 17 20 9 11 1023.1 1023.2 0.0
18/04:30am 4.3 0.1 4.0 98 0.1 WSW 15 17 8 9 1022.9 1023.0 0.0
18/04:00am 4.9 0.5 4.6 98 0.1 WSW 17 20 9 11 1023.1 1023.2 0.0
18/03:30am 5.2 0.2 4.8 97 0.2 WSW 20 24 11 13 1023.3 1023.4 0.0
18/03:00am 5.4 0.4 4.8 96 0.3 SW 20 26 11 14 1022.9 1023.0 0.0
18/02:30am 5.6 0.7 5.0 96 0.3 SW 20 26 11 14 1022.9 1023.0 0.0
18/02:00am 5.9 0.6 5.2 95 0.3 WSW 22 26 12 14 1022.9 1023.0 0.0
18/01:30am 6.2 1.0 5.3 94 0.4 SW 22 30 12 16 1022.7 1022.8 0.0
18/01:00am 6.4 0.8 5.4 93 0.4 WSW 24 30 13 16 1022.6 1022.7 0.0
18/12:30am 6.6 1.0 5.6 93 0.4 WSW 24 32 13 17 1022.4 1022.6 0.0
18/12:00am 7.0 1.1 5.6 91 0.6 WSW 26 32 14 17 1022.3 1022.5 0.0
 
Date/Time
EST
Temp
°C
App
Temp
°C
Dew
Point
°C
Rel
Hum
%
Delta-T
°C
Wind Press
QNH
hPa
Press
MSL
hPa
Rain since
9am
mm
Dir  Spd
km/h
Gust
km/h
Spd
kts
Gust
kts
17/11:30pm 7.3 1.4 5.8 90 0.7 WSW 26 33 14 18 1022.3 1022.5 0.0
17/11:00pm 7.6 1.7 5.9 89 0.8 WSW 26 32 14 17 1022.4 1022.6 0.0
17/10:30pm 8.0 2.2 6.1 88 0.9 WSW 26 33 14 18 1022.1 1022.3 0.0
17/10:00pm 8.5 2.3 6.3 86 1.0 WSW 28 35 15 19 1021.9 1022.1 0.0
17/09:30pm 8.9 2.7 6.3 84 1.2 WSW 28 35 15 19 1021.8 1022.0 0.0
17/09:00pm 9.3 3.5 6.4 82 1.3 WSW 26 35 14 19 1021.4 1021.6 0.0
17/08:30pm 9.4 3.6 6.3 81 1.4 WSW 26 35 14 19 1021.2 1021.4 0.0
17/08:00pm 10.1 4.3 6.3 77 1.8 WSW 26 37 14 20 1021.1 1021.3 0.0
17/07:30pm 10.3 3.1 6.1 75 2.0 WSW 33 46 18 25 1020.6 1020.8 0.0
17/07:00pm 10.9 3.4 6.1 72 2.2 W 35 46 19 25 1019.9 1020.1 0.0
17/06:30pm 11.1 3.5 6.0 71 2.4 WSW 35 44 19 24 1020.0 1020.2 0.0
17/06:17pm 11.4 4.2 6.1 70 2.5 WSW 33 52 18 28 1019.9 1020.1 0.0
17/06:00pm 11.5 3.9 6.0 69 2.6 WSW 35 44 19 24 1019.6 1019.8 0.0
17/05:30pm 11.3 3.4 6.2 71 2.4 WSW 37 46 20 25 1019.2 1019.4 0.0
17/05:00pm 11.8 4.2 5.7 66 2.8 WSW 35 46 19 25 1018.8 1018.9 0.0
17/04:30pm 12.5 4.6 6.1 65 3.0 WSW 37 48 20 26 1018.8 1018.9 0.0
17/04:00pm 12.5 3.4 5.9 64 3.1 WSW 43 54 23 29 1018.7 1018.8 0.0
17/03:30pm 12.8 4.9 6.2 64 3.1 WSW 37 50 20 27 1018.5 1018.6 0.0
17/03:00pm 12.5 3.4 5.9 64 3.1 WSW 43 52 23 28 1018.3 1018.4 0.0
17/02:30pm 12.0 3.9 5.4 64 3.1 WSW 37 52 20 28 1018.2 1018.3 0.0
17/02:00pm 13.4 4.8 6.3 62 3.4 WSW 41 50 22 27 1018.1 1018.2 0.0
17/01:30pm 13.9 5.5 7.2 64 3.3 WSW 41 59 22 32 1018.1 1018.2 0.0
17/01:29pm 13.0 4.4 6.6 65 3.1 WSW 41 59 22 32 1018.1 1018.2 0.0
17/01:00pm 12.9 4.7 6.7 66 3.0 WSW 39 50 21 27 1018.1 1018.2 0.0
17/12:30pm 12.2 4.0 6.5 68 2.7 WSW 39 56 21 30 1018.5 1018.6 0.0
17/12:26pm 12.2 4.3 6.3 67 2.8 WSW 37 56 20 30 1018.5 1018.6 0.0
17/12:00pm 11.6 3.9 6.9 73 2.2 WSW 37 48 20 26 1018.8 1018.9 0.0
17/11:30am 10.6 2.4 6.6 76 1.9 W 39 48 21 26 1019.1 1019.3 0.0
17/11:00am 9.6 2.5 6.5 81 1.4 W 33 44 18 24 1019.3 1019.5 0.0
17/10:30am 8.5 1.0 6.5 87 0.9 W 35 46 19 25 1019.5 1019.7 0.0
17/10:00am 7.7 -0.2 6.3 91 0.6 WSW 37 48 20 26 1019.5 1019.7 0.0
17/09:30am 6.7 -0.5 5.8 94 0.4 W 33 44 18 24 1019.1 1019.3 0.0
17/09:00am 6.1 -1.2 5.4 95 0.3 W 33 43 18 23 1019.0 1019.2 0.4
17/08:30am 5.7 -1.1 5.1 96 0.3 W 30 39 16 21 1018.6 1018.7 0.4
17/08:00am 5.5 -1.7 4.9 96 0.3 W 32 43 17 23 1018.3 1018.4 0.4
17/07:30am 5.4 -1.5 4.8 96 0.3 W 30 43 16 23 1018.0 1018.1 0.4
17/07:00am 5.0 -1.9 4.4 96 0.3 W 30 43 16 23 1017.8 1017.9 0.4
17/06:30am 5.0 -1.2 4.4 96 0.3 W 26 35 14 19 1017.5 1017.6 0.4
17/06:00am 4.5 -1.4 4.1 97 0.2 W 24 33 13 18 1017.3 1017.4 0.4
17/05:30am 4.3 -1.2 3.9 97 0.2 WNW 22 28 12 15 1017.3 1017.4 0.4
17/05:00am 4.4 -1.5 4.0 97 0.2 W 24 32 13 17 1017.1 1017.2 0.4
17/04:30am 4.7 -1.2 4.1 96 0.3 W 24 32 13 17 1017.4 1017.5 0.4
17/04:00am 5.4 0.0 4.5 94 0.4 W 22 30 12 16 1017.4 1017.5 0.4
17/03:30am 6.0 0.3 5.0 93 0.4 W 24 30 13 16 1017.5 1017.6 0.4
17/03:00am 6.0 0.0 5.1 94 0.4 W 26 32 14 17 1017.6 1017.7 0.4
17/02:30am 5.6 -0.4 5.3 98 0.1 W 26 33 14 18 1017.6 1017.7 0.4
17/02:00am 5.8 -0.1 5.7 99 0.0 W 26 37 14 20 1017.6 1017.7 0.4
17/01:30am 5.8 -0.6 5.2 96 0.3 W 28 39 15 21 1017.3 1017.4 0.4
17/01:00am 6.1 0.5 5.2 94 0.4 W 24 33 13 18 1017.2 1017.3 0.4
17/12:30am 5.9 -0.2 5.0 94 0.4 W 26 33 14 18 1017.1 1017.2 0.4
17/12:00am 6.5 0.2 5.5 93 0.4 W 28 35 15 19 1017.0 1017.1 0.4
 
Date/Time
EST
Temp
°C
App
Temp
°C
Dew
Point
°C
Rel
Hum
%
Delta-T
°C
Wind Press
QNH
hPa
Press
MSL
hPa
Rain since
9am
mm
Dir  Spd
km/h
Gust
km/h
Spd
kts
Gust
kts
16/11:30pm 6.8 1.1 5.0 88 0.8 W 24 32 13 17 1017.0 1017.1 0.4
16/11:00pm 6.1 1.1 4.6 90 0.6 WNW 20 24 11 13 1017.0 1017.1 0.4
16/10:30pm 6.7 1.4 4.9 88 0.8 WNW 22 30 12 16 1016.8 1016.9 0.4
16/10:00pm 6.4 1.5 4.9 90 0.7 NW 20 24 11 13 1016.8 1016.9 0.4
16/09:30pm 6.6 2.5 4.6 87 0.9 WNW 15 20 8 11 1017.0 1017.1 0.4
16/09:00pm 6.5 2.5 4.7 88 0.8 WNW 15 20 8 11 1017.1 1017.2 0.4
16/08:30pm 6.9 2.0 5.1 88 0.8 W 20 26 11 14 1017.2 1017.3 0.4
16/08:05pm 8.2 1.7 4.6 78 1.6 W 28 46 15 25 1017.4 1017.5 0.4
16/08:00pm 8.4 3.4 4.8 78 1.6 WNW 20 26 11 14 1017.3 1017.4 0.4
16/07:30pm 8.4 4.1 5.2 80 1.4 WNW 17 22 9 12 1016.9 1017.0 0.4
16/07:00pm 7.7 3.4 5.2 84 1.1 NW 17 26 9 14 1016.7 1016.8 0.4
16/06:30pm 5.9 2.1 3.7 86 0.9 NW 13 17 7 9 1016.5 1016.6 0.4
16/06:00pm 7.6 3.9 4.4 80 1.4 WNW 13 17 7 9 1016.2 1016.3 0.4
16/05:30pm 8.5 4.0 4.1 74 1.9 W 17 20 9 11 1016.2 1016.3 0.4
16/05:00pm 9.5 3.3 4.5 71 2.2 WSW 26 35 14 19 1015.9 1016.0 0.4
16/04:30pm 10.5 2.6 4.6 67 2.7 WSW 35 46 19 25 1015.7 1015.8 0.4
16/04:00pm 10.7 2.4 4.2 64 2.9 WSW 37 52 20 28 1015.5 1015.6 0.4
16/03:51pm 11.4 3.3 5.3 66 2.8 WSW 37 46 20 25 1015.5 1015.6 0.4
16/03:30pm 11.6 3.9 5.5 66 2.8 W 35 44 19 24 1015.2 1015.3 0.4
16/03:00pm 11.1 2.6 5.2 67 2.7 W 39 50 21 27 1014.9 1015.0 0.4

Other Formats:

Comma delimited format used in spreadsheet applications
http://www.bom.gov.au/fwo/IDN60801/IDN60801.94702.axf

JavaScript Object Notation format (JSON) in row-major order
http://www.bom.gov.au/fwo/IDN60801/IDN60801.94702.json